Time;durP1;ratioP1;P1;durP2;ratioP2;P2;SDS_P1;SDS_P2;PMS_P1;PMS_P2;Temp;Humidity;BMP_temperature;BMP_pressure;BME280_temperature;BME280_humidity;BME280_pressure;Samples;Min_cycle;Max_cycle;Signal;HPM_P1;HPM_P2
2022/08/16 00:01:22;;;;;;;19.35;17.27;;;19.60;99.90;;;-141.84;87.75;19687.84;4877956;29;20239;-50
2022/08/16 00:03:52;;;;;;;18.83;16.73;;;19.50;99.90;;;-141.84;88.65;19635.00;4878026;29;20227;-51
2022/08/16 00:06:22;;;;;;;18.33;16.42;;;19.50;99.90;;;-141.84;89.16;19641.09;4877917;29;20623;-51
2022/08/16 00:08:50;;;;;;;19.85;17.85;;;19.20;99.90;;;-141.84;89.60;19614.66;4877982;29;20578;-49
2022/08/16 00:11:20;;;;;;;19.85;17.85;;;19.40;99.90;;;-141.84;89.48;19663.44;4877794;29;20299;-49
2022/08/16 00:13:51;;;;;;;18.63;16.85;;;19.40;99.90;;;-141.84;88.10;19677.66;4877848;29;20310;-48
2022/08/16 00:16:23;;;;;;;18.45;16.70;;;19.40;99.90;;;-141.84;87.35;19606.53;4877946;29;20243;-50
2022/08/16 00:19:13;;;;;;;18.88;17.02;;;19.40;99.90;;;-141.84;88.28;19594.34;4877996;29;20591;-47
2022/08/16 00:21:43;;;;;;;18.40;16.58;;;19.40;99.90;;;-141.84;89.27;19535.41;4877623;29;20245;-48
2022/08/16 00:24:13;;;;;;;19.98;18.05;;;19.30;99.90;;;-141.84;89.77;19448.03;4877733;29;20207;-46
2022/08/16 00:27:00;;;;;;;23.92;18.77;;;19.30;99.90;;;-141.84;89.03;19543.53;4877825;29;20230;-50
2022/08/16 00:29:31;;;;;;;20.55;18.48;;;19.30;99.90;;;-141.84;88.73;19509.00;4878145;29;20261;-47
2022/08/16 00:32:04;;;;;;;20.65;18.48;;;19.40;99.90;;;-141.84;89.07;19472.41;4877609;29;20242;-46
2022/08/16 00:34:36;;;;;;;20.67;18.48;;;19.40;99.90;;;-141.84;90.17;19425.69;4877398;29;20795;-48
2022/08/16 00:37:21;;;;;;;21.45;18.60;;;19.40;99.90;;;-141.84;90.62;19423.66;4877474;29;20283;-48
2022/08/16 00:39:53;;;;;;;22.65;20.25;;;19.30;99.90;;;-141.84;90.63;19376.91;4877258;29;20263;-51
2022/08/16 00:42:29;;;;;;;19.65;17.65;;;19.40;99.90;;;-141.84;89.84;19370.81;4877679;29;20227;-50
2022/08/16 00:45:17;;;;;;;21.10;19.00;;;19.40;99.90;;;-141.84;90.00;19411.44;4877205;29;20589;-46
2022/08/16 00:47:54;;;;;;;21.05;18.85;;;19.40;99.90;;;-141.84;90.26;19338.28;4877801;29;20319;-50
2022/08/16 00:50:28;;;;;;;24.33;19.00;;;19.40;99.90;;;-141.84;89.86;19387.06;4877101;29;20227;-49
2022/08/16 00:53:04;;;;;;;21.75;18.85;;;19.40;99.90;;;-141.84;89.41;19358.63;4877191;29;20235;-48
2022/08/16 00:55:35;;;;;;;19.10;17.10;;;19.40;99.90;;;-141.84;89.51;19362.69;4877170;29;20231;-48
2022/08/16 00:58:06;;;;;;;20.88;18.83;;;19.40;99.90;;;-141.84;89.51;19346.44;4877175;29;20241;-46
2022/08/16 01:00:46;;;;;;;21.45;19.17;;;19.40;99.90;;;-141.84;89.55;19326.09;4876917;29;20239;-46
2022/08/16 01:03:26;;;;;;;19.77;17.70;;;19.40;99.90;;;-141.84;89.74;19297.66;4877389;29;20226;-48
2022/08/16 01:05:59;;;;;;;19.98;17.88;;;19.40;99.90;;;-141.84;89.91;19313.91;4877469;29;20467;-49
2022/08/16 01:08:54;;;;;;;20.20;18.13;;;19.40;99.90;;;-141.84;89.36;19313.91;4879522;29;20208;-50
2022/08/16 01:11:29;;;;;;;19.05;17.05;;;19.30;99.90;;;-141.84;89.06;19271.25;4881211;29;20208;-48
2022/08/16 01:14:07;;;;;;;19.42;17.02;;;19.30;99.90;;;-141.84;89.32;19295.63;4880626;29;20673;-46
2022/08/16 01:16:38;;;;;;;20.25;17.30;;;19.30;99.90;;;-141.84;89.59;19261.06;4880894;29;20264;-49
2022/08/16 01:19:19;;;;;;;17.48;15.77;;;19.30;99.90;;;-141.84;89.56;19212.31;4880735;29;20235;-47
2022/08/16 01:21:57;;;;;;;18.15;16.23;;;19.20;99.90;;;-141.84;89.55;19216.38;4880658;29;20243;-49
2022/08/16 01:24:54;;;;;;;18.70;16.63;;;19.20;99.90;;;-141.84;90.00;19214.34;4880644;29;20240;-52
2022/08/16 01:27:29;;;;;;;19.27;17.25;;;19.20;99.90;;;-141.84;90.00;19234.66;4880786;29;20231;-48
2022/08/16 01:30:09;;;;;;;18.30;16.40;;;19.20;99.90;;;-141.84;89.77;19226.53;4880509;29;20227;-49
2022/08/16 01:32:49;;;;;;;18.40;16.50;;;19.20;99.90;;;-141.84;89.26;19200.13;4881209;29;20259;-51
2022/08/16 01:35:40;;;;;;;18.38;16.35;;;19.10;99.90;;;-141.84;85.88;19374.88;4880695;29;20216;-49
2022/08/16 01:38:21;;;;;;;20.05;17.10;;;19.20;99.90;;;-141.84;86.50;19317.97;4880651;29;20258;-48
2022/08/16 01:41:01;;;;;;;20.30;17.52;;;19.20;99.90;;;-141.84;87.18;19240.75;4880214;29;20227;-50
2022/08/16 01:43:31;;;;;;;19.17;16.92;;;19.20;99.90;;;-141.84;88.10;19242.78;4880340;29;20263;-47
2022/08/16 01:46:04;;;;;;;18.08;15.93;;;19.10;99.90;;;-141.84;87.99;19234.66;4880073;29;20240;-51
2022/08/16 01:48:56;;;;;;;19.85;17.85;;;19.10;99.90;;;-141.84;87.53;19220.44;4880230;29;20235;-47
2022/08/16 01:51:27;;;;;;;19.67;17.58;;;19.10;99.90;;;-141.84;85.26;19307.81;4880194;29;20231;-50
2022/08/16 01:53:56;;;;;;;19.08;16.98;;;19.20;99.90;;;-141.84;86.07;19250.91;4880358;29;20282;-46
2022/08/16 01:56:27;;;;;;;18.58;16.70;;;19.20;99.90;;;-141.84;86.68;19204.19;4880338;29;20230;-49
2022/08/16 01:59:00;;;;;;;18.88;17.00;;;19.10;99.90;;;-141.84;86.80;19210.28;4880108;29;20227;-46
2022/08/16 02:01:29;;;;;;;17.98;16.08;;;19.10;99.90;;;-141.84;87.05;19183.84;4879718;29;20246;-48
2022/08/16 02:03:59;;;;;;;19.52;17.63;;;19.10;99.90;;;-141.84;87.34;19185.88;4880019;29;20227;-48
2022/08/16 02:06:40;;;;;;;18.98;17.08;;;19.00;99.90;;;-141.84;86.82;19171.66;4879997;29;20282;-49
2022/08/16 02:09:15;;;;;;;20.65;18.20;;;19.00;99.90;;;-141.84;85.16;19277.34;4879909;29;20191;-50
2022/08/16 02:11:49;;;;;;;19.15;17.25;;;19.00;99.90;;;-141.84;85.37;19265.13;4880399;29;20196;-46
2022/08/16 02:14:22;;;;;;;19.60;17.50;;;19.00;99.90;;;-141.84;86.35;19208.25;4879801;29;20294;-49
2022/08/16 02:16:55;;;;;;;18.02;16.27;;;19.00;99.90;;;-141.84;85.88;19212.31;4879607;29;20235;-49
2022/08/16 02:19:27;;;;;;;20.60;16.38;;;19.00;99.90;;;-141.84;86.72;19141.19;4878758;29;20715;-49
2022/08/16 02:22:19;;;;;;;19.33;17.35;;;18.90;99.90;;;-141.84;85.63;19187.91;4879368;29;20232;-49
2022/08/16 02:25:08;;;;;;;18.17;16.38;;;18.90;99.90;;;-141.84;86.33;19143.22;4879637;29;20227;-49
2022/08/16 02:27:41;;;;;;;20.15;16.88;;;18.90;99.90;;;-141.84;86.45;19173.69;4879636;29;20226;-48
2022/08/16 02:30:16;;;;;;;22.50;17.52;;;18.90;99.90;;;-141.84;85.92;19165.56;4879625;29;20286;-47
2022/08/16 02:33:06;;;;;;;18.40;16.27;;;18.80;99.90;;;-141.84;86.53;19139.16;4879398;29;20667;-49
2022/08/16 02:35:36;;;;;;;19.33;17.27;;;18.80;99.90;;;-141.84;86.22;19135.09;4879958;29;20187;-51
2022/08/16 02:38:25;;;;;;;20.20;16.83;;;18.80;99.90;;;-141.84;85.57;19167.59;4879540;29;20219;-46
2022/08/16 02:40:53;;;;;;;17.55;15.75;;;18.80;99.90;;;-141.84;86.02;19141.19;4879098;29;20770;-47
2022/08/16 02:43:23;;;;;;;21.10;17.10;;;18.70;99.90;;;-141.84;86.94;19072.09;4879350;29;20314;-47
2022/08/16 02:45:54;;;;;;;18.20;16.40;;;18.70;99.90;;;-141.84;87.10;19057.88;4879227;29;20231;-46
2022/08/16 02:48:23;;;;;;;18.42;16.25;;;18.70;99.90;;;-141.84;87.68;19041.63;4879245;29;20282;-51
2022/08/16 02:50:58;;;;;;;18.38;16.42;;;18.60;99.90;;;-141.84;88.50;19007.06;4879686;29;20230;-50
2022/08/16 02:53:41;;;;;;;17.88;16.00;;;18.50;99.90;;;-141.84;88.87;18976.59;4877669;29;20238;-49
2022/08/16 02:56:11;;;;;;;18.60;16.60;;;18.50;99.90;;;-141.84;89.09;18968.47;4878934;29;20239;-50
2022/08/16 02:58:45;;;;;;;17.48;15.77;;;18.40;99.90;;;-141.84;89.42;18964.41;4879026;29;20264;-51
2022/08/16 03:01:15;;;;;;;18.88;16.98;;;18.40;99.90;;;-141.84;89.59;18942.06;4878849;29;20306;-46
2022/08/16 03:04:06;;;;;;;19.95;16.35;;;18.30;99.90;;;-141.84;89.63;18968.47;4879133;29;20239;-50
2022/08/16 03:06:56;;;;;;;18.60;16.80;;;18.30;99.90;;;-141.84;89.16;18907.50;4878966;29;20231;-51
2022/08/16 03:09:25;;;;;;;17.90;16.20;;;18.30;99.90;;;-141.84;89.35;18921.75;4878927;29;20314;-52
2022/08/16 03:11:57;;;;;;;19.27;17.30;;;18.30;99.90;;;-141.84;89.50;18911.56;4879416;29;20184;-47
2022/08/16 03:14:29;;;;;;;17.75;16.13;;;18.30;99.90;;;-141.84;89.58;18915.63;4878827;29;20525;-49
2022/08/16 03:16:58;;;;;;;19.67;16.58;;;18.30;99.90;;;-141.84;89.81;18860.78;4878644;29;20231;-48
2022/08/16 03:19:32;;;;;;;18.50;16.52;;;18.20;99.90;;;-141.84;89.99;18842.50;4878799;29;20234;-50
2022/08/16 03:22:16;;;;;;;18.92;17.00;;;18.20;99.90;;;-141.84;89.97;18842.50;4878396;29;20241;-52
2022/08/16 03:24:56;;;;;;;18.23;16.52;;;18.20;99.90;;;-141.84;90.37;18809.97;4878568;29;20227;-49
2022/08/16 03:27:26;;;;;;;19.13;16.33;;;18.20;99.90;;;-141.84;90.31;18785.59;4878639;29;20232;-49
2022/08/16 03:30:01;;;;;;;19.85;17.80;;;18.20;99.90;;;-141.84;89.92;18795.75;4878819;29;20194;-49
2022/08/16 03:32:46;;;;;;;18.98;17.13;;;18.20;99.90;;;-141.84;87.67;18897.34;4878626;29;20211;-50
2022/08/16 03:35:22;;;;;;;18.73;16.85;;;18.30;99.90;;;-141.84;87.83;18862.81;4878326;29;20270;-49
2022/08/16 03:37:55;;;;;;;17.77;16.08;;;18.30;99.90;;;-141.84;88.17;18834.38;4878098;29;20245;-49
2022/08/16 03:40:33;;;;;;;19.63;16.88;;;18.20;99.90;;;-141.84;87.51;18846.56;4878364;29;20235;-50
2022/08/16 03:43:04;;;;;;;20.65;17.63;;;18.30;99.90;;;-141.84;87.95;18870.94;4878186;29;20246;-48
2022/08/16 03:45:51;;;;;;;19.92;17.88;;;18.30;99.90;;;-141.84;85.81;18942.06;4878339;29;20255;-51
2022/08/16 03:48:23;;;;;;;18.40;16.08;;;18.30;99.90;;;-141.84;85.25;18944.09;4878094;29;20235;-49
2022/08/16 03:51:08;;;;;;;18.92;17.05;;;18.40;99.90;;;-141.84;83.94;19033.50;4878224;29;20192;-47
2022/08/16 03:53:37;;;;;;;18.92;16.83;;;18.40;99.90;;;-141.84;83.80;19055.84;4878083;29;20275;-48
2022/08/16 03:56:07;;;;;;;18.83;17.00;;;18.50;99.90;;;-141.84;84.37;19055.84;4877870;29;20227;-48
2022/08/16 03:58:49;;;;;;;19.70;17.70;;;18.50;99.90;;;-141.84;84.51;18988.78;4877921;29;20310;-47
2022/08/16 04:01:23;;;;;;;18.30;16.50;;;18.50;99.90;;;-141.84;84.99;18954.25;4877854;29;20255;-49
2022/08/16 04:03:56;;;;;;;18.40;16.70;;;18.50;99.90;;;-141.84;83.75;18988.78;4877645;29;20788;-48
2022/08/16 04:06:25;;;;;;;18.02;16.15;;;18.50;99.90;;;-141.84;83.45;18998.94;4877989;29;20227;-48
2022/08/16 04:08:53;;;;;;;18.38;16.55;;;18.50;99.90;;;-141.84;84.19;18994.88;4878161;29;20208;-52
2022/08/16 04:11:22;;;;;;;17.27;15.65;;;18.50;99.90;;;-141.84;84.81;18988.78;4877776;29;20234;-50
2022/08/16 04:13:51;;;;;;;17.70;15.90;;;18.40;99.90;;;-141.84;83.84;18976.59;4877710;29;20238;-51
2022/08/16 04:16:37;;;;;;;16.67;14.98;;;18.40;99.90;;;-141.84;84.03;18976.59;4877832;29;20309;-50
2022/08/16 04:19:05;;;;;;;18.52;15.35;;;18.40;99.90;;;-141.84;84.02;18954.25;4877837;29;20227;-48
2022/08/16 04:21:36;;;;;;;16.98;15.30;;;18.40;99.90;;;-141.84;83.84;19037.56;4878084;29;20231;-50
2022/08/16 04:24:15;;;;;;;16.02;14.38;;;18.40;99.90;;;-141.84;83.62;18988.78;4877101;29;20576;-52
2022/08/16 04:26:44;;;;;;;16.60;14.80;;;18.50;99.90;;;-141.84;84.00;19005.03;4878031;29;20706;-48
2022/08/16 04:29:14;;;;;;;17.20;15.60;;;18.50;99.90;;;-141.84;83.45;18984.72;4877525;29;20259;-46
2022/08/16 04:31:54;;;;;;;17.77;14.77;;;18.50;99.90;;;-141.84;81.79;19066.00;4877571;29;20749;-49
2022/08/16 04:34:28;;;;;;;16.17;14.52;;;18.50;99.90;;;-141.84;80.15;19196.06;4877466;29;20263;-49
2022/08/16 04:36:58;;;;;;;14.75;13.45;;;18.60;99.90;;;-141.84;81.26;19122.91;4876915;29;20242;-50
2022/08/16 04:39:31;;;;;;;16.63;14.52;;;18.60;99.90;;;-141.84;81.23;19157.44;4877142;29;20318;-49
2022/08/16 04:42:16;;;;;;;16.52;14.98;;;18.70;99.90;;;-141.84;80.84;19122.91;4877501;29;20206;-50
2022/08/16 04:44:45;;;;;;;16.60;13.90;;;18.70;99.90;;;-141.84;81.10;19120.88;4883902;29;20551;-50
2022/08/16 04:47:25;;;;;;;15.35;13.68;;;18.70;99.90;;;-141.84;81.36;19118.84;4883166;29;20237;-47
2022/08/16 04:49:59;;;;;;;14.23;12.82;;;18.70;99.90;;;-141.84;81.51;19059.91;4883387;29;20227;-48
2022/08/16 04:52:28;;;;;;;15.35;13.75;;;18.70;99.90;;;-141.84;80.23;19181.81;4883521;29;20250;-51
2022/08/16 04:55:08;;;;;;;15.75;13.30;;;18.70;99.90;;;-141.84;79.84;19206.22;4883464;29;20262;-48
2022/08/16 04:57:40;;;;;;;14.30;13.00;;;18.80;99.90;;;-141.84;79.25;19257.00;4883447;29;20799;-47
2022/08/16 05:00:14;;;;;;;13.48;12.20;;;18.90;99.90;;;-141.84;79.21;19254.97;4883687;29;20187;-48
2022/08/16 05:03:05;;;;;;;12.57;11.38;;;18.90;99.90;;;-141.84;77.99;19326.09;4883556;29;20650;-50
2022/08/16 05:05:37;;;;;;;14.27;12.80;;;19.00;99.90;;;-141.84;77.28;19362.69;4883840;29;20643;-50
2022/08/16 05:08:24;;;;;;;13.45;12.25;;;19.10;99.90;;;-141.84;76.85;19450.06;4883012;29;20735;-49
2022/08/16 05:10:59;;;;;;;13.10;11.90;;;19.20;99.90;;;-141.84;76.49;19454.13;4883459;29;20250;-49
2022/08/16 05:13:34;;;;;;;12.13;10.98;;;19.30;99.90;;;-141.84;75.54;19567.94;4883446;29;20313;-49
2022/08/16 05:16:11;;;;;;;12.80;11.60;;;19.50;99.90;;;-141.84;74.47;19689.88;4883527;29;20313;-47
2022/08/16 05:18:50;;;;;;;12.32;11.05;;;19.70;99.90;;;-141.84;73.08;19817.91;4883319;29;20231;-47
2022/08/16 05:21:19;;;;;;;11.90;10.82;;;19.80;99.90;;;-141.84;71.55;19956.09;4883290;29;20733;-46
2022/08/16 05:23:49;;;;;;;12.63;11.40;;;20.00;99.90;;;-141.84;71.15;20080.09;4883752;29;20287;-48
2022/08/16 05:26:29;;;;;;;11.73;10.63;;;20.30;99.90;;;-141.84;69.46;20216.25;4883889;29;20211;-48
2022/08/16 05:29:00;;;;;;;11.38;10.30;;;20.40;99.90;;;-141.84;68.17;20358.56;4883165;29;20254;-49
2022/08/16 05:31:33;;;;;;;10.63;9.52;;;20.60;99.90;;;-141.84;67.61;20450.03;4883313;29;20254;-47
2022/08/16 05:34:04;;;;;;;11.48;10.27;;;20.70;99.90;;;-141.84;66.93;20506.94;4883300;29;20234;-53
2022/08/16 05:36:48;;;;;;;11.63;8.35;;;20.80;99.90;;;-141.84;65.80;20620.78;4883198;29;20750;-47
2022/08/16 05:39:19;;;;;;;10.45;9.48;;;21.00;99.90;;;-141.84;64.70;20714.28;4883139;29;20262;-47
2022/08/16 05:41:50;;;;;;;11.15;10.00;;;21.10;99.90;;;-141.84;64.65;20777.28;4883658;29;20625;-46
2022/08/16 05:44:22;;;;;;;9.52;8.70;;;21.20;99.90;;;-141.84;63.45;20913.50;4882796;29;20718;-51
2022/08/16 05:46:55;;;;;;;9.27;8.38;;;21.30;99.90;;;-141.84;63.36;20907.41;4883290;29;20231;-50
2022/08/16 05:49:28;;;;;;;12.57;9.18;;;21.40;99.90;;;-141.84;62.44;20956.19;4883153;29;20641;-47
2022/08/16 05:52:08;;;;;;;9.68;8.60;;;21.60;99.90;;;-141.84;62.49;20966.34;4883096;29;20608;-49
2022/08/16 05:54:39;;;;;;;9.43;8.52;;;21.60;99.90;;;-141.84;61.48;21055.81;4880623;29;20277;-50
2022/08/16 05:57:16;;;;;;;9.45;7.97;;;21.70;99.90;;;-141.84;61.81;21072.06;4880470;29;20203;-49
2022/08/16 05:59:46;;;;;;;9.80;8.38;;;21.80;99.90;;;-141.84;61.43;21092.41;4880776;29;20242;-49
2022/08/16 06:02:18;;;;;;;10.43;7.93;;;21.90;99.90;;;-141.84;60.35;21167.63;4880173;29;20231;-47
2022/08/16 06:04:48;;;;;;;9.05;8.15;;;21.90;99.90;;;-141.84;60.90;21173.72;4880073;29;20613;-46
2022/08/16 06:07:16;;;;;;;8.68;7.75;;;22.00;99.90;;;-141.84;60.94;21143.22;4880064;29;20330;-48
2022/08/16 06:09:57;;;;;;;8.80;7.72;;;22.00;99.90;;;-141.84;60.89;21145.25;4880014;29;20235;-52
2022/08/16 06:12:27;;;;;;;8.65;7.80;;;22.10;99.90;;;-141.84;59.41;21259.13;4880019;29;20727;-50
2022/08/16 06:15:00;;;;;;;9.23;7.55;;;22.10;99.90;;;-141.84;59.12;21275.38;4880181;29;20580;-47
2022/08/16 06:17:30;;;;;;;8.52;7.68;;;22.20;99.90;;;-141.84;59.90;21232.69;4880305;29;20287;-49
2022/08/16 06:20:18;;;;;;;8.35;7.65;;;22.10;99.90;;;-141.84;60.42;21216.41;4879761;29;20239;-49
2022/08/16 06:22:55;;;;;;;9.40;8.40;;;22.20;99.90;;;-141.84;59.65;21236.75;4879740;29;20238;-50
2022/08/16 06:25:33;;;;;;;9.98;7.40;;;22.20;99.90;;;-141.84;59.52;21311.97;4879323;29;20234;-48
2022/08/16 06:28:09;;;;;;;8.98;7.63;;;22.30;99.90;;;-141.84;58.68;21309.94;4879784;29;20258;-48
2022/08/16 06:30:45;;;;;;;8.20;7.10;;;22.40;99.90;;;-141.84;58.01;21446.16;4879500;29;20787;-48
2022/08/16 06:33:15;;;;;;;8.38;7.53;;;22.40;99.90;;;-141.84;58.02;21383.13;4879415;29;20559;-50
2022/08/16 06:35:52;;;;;;;8.05;7.35;;;22.50;99.90;;;-141.84;57.88;21411.59;4880214;29;20192;-50
2022/08/16 06:38:26;;;;;;;8.65;6.68;;;22.50;99.90;;;-141.84;58.28;21415.66;4861358;29;20208;-45
2022/08/16 06:41:03;;;;;;;8.07;7.10;;;22.60;99.90;;;-141.84;57.16;21444.13;4876813;29;20234;-49
2022/08/16 06:43:34;;;;;;;7.00;6.40;;;22.60;99.90;;;-141.84;58.37;21401.44;4879289;29;20255;-49
2022/08/16 06:46:08;;;;;;;7.35;6.75;;;22.60;99.90;;;-141.84;57.17;21431.94;4879307;29;20245;-49
2022/08/16 06:48:39;;;;;;;6.82;6.22;;;22.60;99.90;;;-141.84;56.84;21448.19;4871807;29;20228;-45
2022/08/16 06:51:12;;;;;;;7.82;7.03;;;22.60;99.90;;;-141.84;56.72;21490.91;4852492;29;20599;-46
2022/08/16 06:53:42;;;;;;;7.55;6.93;;;22.70;99.90;;;-141.84;55.91;21488.88;4873201;29;20279;-48
2022/08/16 06:56:10;;;;;;;7.43;6.70;;;22.80;99.90;;;-141.84;56.63;21478.69;4860208;29;20239;-47
2022/08/16 06:58:51;;;;;;;8.10;6.40;;;22.70;99.90;;;-141.84;57.36;21456.34;4860171;29;20853;-51
2022/08/16 07:01:20;;;;;;;6.85;6.07;;;22.70;99.90;;;-141.84;56.93;21464.47;4860156;29;20319;-47
2022/08/16 07:04:09;;;;;;;6.68;6.07;;;22.70;99.90;;;-141.84;57.56;21474.63;4860370;29;20243;-51
2022/08/16 07:06:42;;;;;;;7.35;6.65;;;22.70;99.90;;;-141.84;56.44;21501.06;4859949;29;20661;-48
2022/08/16 07:09:13;;;;;;;7.10;6.40;;;22.80;99.90;;;-141.84;56.98;21488.88;4860083;29;20196;-50
2022/08/16 07:11:43;;;;;;;7.32;6.70;;;22.90;99.90;;;-141.84;56.99;21480.72;4860696;29;20200;-46
2022/08/16 07:14:16;;;;;;;8.40;7.13;;;22.80;99.90;;;-141.84;56.67;21488.88;4860249;29;20647;-49
2022/08/16 07:16:57;;;;;;;7.72;6.30;;;22.90;99.90;;;-141.84;55.82;21582.38;4859725;29;20240;-48
2022/08/16 07:19:31;;;;;;;7.13;6.45;;;22.90;99.90;;;-141.84;56.04;21553.94;4860209;29;20319;-52
2022/08/16 07:22:21;;;;;;;7.90;7.22;;;22.90;99.90;;;-141.84;56.14;21533.59;4859794;29;20232;-51
2022/08/16 07:25:13;;;;;;;7.38;6.65;;;22.90;99.90;;;-141.84;56.77;21553.94;4859658;29;20284;-47
2022/08/16 07:27:43;;;;;;;7.57;6.88;;;22.90;99.90;;;-141.84;56.14;21558.00;4860117;29;20239;-48
2022/08/16 07:30:15;;;;;;;7.90;7.15;;;23.00;99.90;;;-141.84;56.48;21564.09;4859577;29;20691;-49
2022/08/16 07:33:04;;;;;;;7.60;6.90;;;23.00;99.90;;;-141.84;56.46;21572.22;4859851;29;20211;-51
2022/08/16 07:35:34;;;;;;;7.22;6.53;;;23.10;99.90;;;-141.84;56.96;21517.31;4860210;29;20192;-46
2022/08/16 07:38:06;;;;;;;7.25;6.72;;;23.20;99.90;;;-141.84;55.87;21639.31;4859462;29;20236;-48
2022/08/16 07:40:36;;;;;;;6.93;6.32;;;23.20;99.90;;;-141.84;56.32;21578.31;4859677;29;20712;-51
2022/08/16 07:43:25;;;;;;;7.70;6.78;;;23.30;99.90;;;-141.84;55.98;21614.94;4859626;29;20694;-47
2022/08/16 07:45:57;;;;;;;7.65;6.53;;;23.30;99.90;;;-141.84;56.04;21600.69;4859418;29;20239;-45
2022/08/16 07:48:26;;;;;;;7.80;6.88;;;23.30;99.90;;;-141.84;56.47;21594.59;4859290;29;20310;-48
2022/08/16 07:50:54;;;;;;;8.05;7.07;;;23.30;99.90;;;-141.84;55.80;21637.28;4859837;29;20216;-53
2022/08/16 07:53:32;;;;;;;8.25;7.32;;;23.40;99.90;;;-141.84;55.21;21659.66;4859643;29;20216;-51
2022/08/16 07:56:10;;;;;;;7.75;6.80;;;23.40;99.90;;;-141.84;55.50;21667.78;4859553;29;20318;-46
2022/08/16 07:58:41;;;;;;;7.18;6.57;;;23.50;99.90;;;-141.84;55.42;21704.38;4859489;29;20252;-45
2022/08/16 08:01:12;;;;;;;8.43;7.18;;;23.50;99.90;;;-141.84;55.22;21647.47;4859035;29;20240;-44
2022/08/16 08:03:44;;;;;;;12.23;10.95;;;23.50;99.90;;;-141.84;54.57;21743.03;4859223;29;20235;-46
2022/08/16 08:06:17;;;;;;;8.50;7.60;;;23.60;99.90;;;-141.84;54.53;21716.59;4859267;29;20199;-51
2022/08/16 08:08:47;;;;;;;8.95;7.47;;;23.60;99.90;;;-141.84;55.14;21708.47;4859345;29;20208;-49
2022/08/16 08:11:20;;;;;;;10.07;8.13;;;23.60;99.90;;;-141.84;54.83;21736.94;4859059;29;20239;-50
2022/08/16 08:13:52;;;;;;;7.00;6.50;;;23.70;99.90;;;-141.84;55.13;21724.72;4859230;29;20244;-52
2022/08/16 08:16:21;;;;;;;8.00;6.88;;;23.80;99.90;;;-141.84;55.26;21741.00;4859009;29;20291;-50
2022/08/16 08:19:00;;;;;;;9.48;6.88;;;23.80;99.90;;;-141.84;54.88;21753.19;4858248;29;20729;-46
2022/08/16 08:21:32;;;;;;;7.63;6.95;;;23.90;99.90;;;-141.84;54.37;21789.78;4859205;29;20243;-48
2022/08/16 08:24:23;;;;;;;7.40;6.70;;;24.00;99.90;;;-141.84;54.41;21808.09;4861330;29;20711;-48
2022/08/16 08:27:00;;;;;;;8.93;7.90;;;24.10;99.90;;;-141.84;53.49;21834.53;4865915;29;20845;-50
2022/08/16 08:29:32;;;;;;;7.43;6.72;;;24.20;99.90;;;-141.84;53.87;21867.06;4875757;29;20655;-53
2022/08/16 08:32:09;;;;;;;6.93;6.32;;;24.20;99.90;;;-141.84;53.57;21889.44;4877054;29;20310;-50
2022/08/16 08:34:58;;;;;;;9.77;7.35;;;24.30;99.90;;;-141.84;53.09;21891.47;4878117;29;20250;-51
2022/08/16 08:37:31;;;;;;;7.47;6.43;;;24.40;99.90;;;-141.84;53.11;21936.19;4877965;29;20667;-49
2022/08/16 08:40:22;;;;;;;7.53;6.82;;;24.40;99.90;;;-141.84;52.62;21921.97;4878211;29;20730;-49
2022/08/16 08:42:56;;;;;;;7.35;6.75;;;24.50;99.90;;;-141.84;53.04;21928.06;4877606;29;20610;-50
2022/08/16 08:45:40;;;;;;;7.93;7.22;;;24.50;99.90;;;-141.84;52.42;22007.38;4877665;29;20226;-49
2022/08/16 08:48:20;;;;;;;7.47;6.88;;;24.60;99.90;;;-141.84;52.22;22029.75;4877270;29;20227;-47
2022/08/16 08:51:04;;;;;;;6.40;5.90;;;24.70;99.90;;;-141.84;52.06;21999.25;4877485;29;20616;-48
2022/08/16 08:53:36;;;;;;;7.13;6.50;;;24.80;99.90;;;-141.84;51.03;22013.47;4877547;29;20349;-46
2022/08/16 08:56:07;;;;;;;6.72;6.03;;;24.90;99.90;;;-141.84;51.19;22060.25;4877350;29;20231;-47
2022/08/16 08:58:52;;;;;;;6.78;6.18;;;24.90;99.90;;;-141.84;51.24;22064.31;4877140;29;20231;-45
2022/08/16 09:01:31;;;;;;;7.25;6.35;;;24.90;99.90;;;-141.84;51.30;22107.00;4877333;29;20233;-50
2022/08/16 09:04:05;;;;;;;7.53;6.78;;;25.10;99.90;;;-141.84;51.17;22135.47;4877215;29;20231;-49
2022/08/16 09:06:34;;;;;;;9.05;6.72;;;25.20;99.90;;;-141.84;50.74;22143.63;4877065;29;20235;-48
2022/08/16 09:09:10;;;;;;;8.75;6.75;;;25.20;99.90;;;-141.84;50.25;22137.50;4877238;29;20274;-44
2022/08/16 09:11:46;;;;;;;7.35;6.65;;;25.30;99.90;;;-141.84;49.62;22186.31;4877295;29;20278;-48
2022/08/16 09:14:34;;;;;;;8.20;7.47;;;25.30;99.90;;;-141.84;49.48;22192.44;4877643;29;20222;-46
2022/08/16 09:17:03;;;;;;;7.00;6.32;;;25.30;99.90;;;-141.84;50.16;22157.84;4877136;29;20277;-44
2022/08/16 09:19:44;;;;;;;7.18;6.47;;;25.30;99.90;;;-141.84;49.72;22224.97;4877147;29;20242;-46
2022/08/16 09:22:12;;;;;;;7.10;6.38;;;25.40;99.90;;;-141.84;49.84;22210.72;4877095;29;20362;-50
2022/08/16 09:24:48;;;;;;;6.35;5.75;;;25.40;99.90;;;-141.84;49.35;22204.63;4876784;29;20703;-48
2022/08/16 09:27:23;;;;;;;6.68;6.07;;;25.40;99.90;;;-141.84;49.00;22222.94;4877161;29;20651;-50
2022/08/16 09:29:53;;;;;;;6.20;5.70;;;25.50;99.90;;;-141.84;48.12;22273.78;4879555;29;20188;-46
2022/08/16 09:32:30;;;;;;;7.55;5.63;;;25.50;99.90;;;-141.84;47.95;22367.31;4862233;29;20242;-46
2022/08/16 09:35:01;;;;;;;6.47;5.80;;;25.60;99.90;;;-141.84;48.31;22330.72;4877560;29;20224;-49
2022/08/16 09:37:31;;;;;;;7.57;5.97;;;25.70;99.90;;;-141.84;48.03;22369.34;4880486;29;20275;-48
2022/08/16 09:40:08;;;;;;;6.10;5.40;;;25.80;99.90;;;-141.84;47.30;22397.81;4880696;29;20230;-49
2022/08/16 09:42:58;;;;;;;6.22;5.63;;;25.80;99.90;;;-141.84;47.18;22338.84;4880402;29;20246;-47
2022/08/16 09:45:29;;;;;;;7.65;5.50;;;25.90;99.90;;;-141.84;47.46;22387.66;4880322;29;20235;-46
2022/08/16 09:47:58;;;;;;;6.50;5.93;;;25.90;99.90;;;-141.84;47.29;22373.41;4880576;29;20636;-48
2022/08/16 09:50:28;;;;;;;6.03;5.38;;;25.90;99.90;;;-141.84;46.70;22420.19;4880676;29;20224;-49
2022/08/16 09:53:11;;;;;;;5.93;4.80;;;26.00;99.90;;;-141.84;45.69;22460.88;4880116;29;20295;-49
2022/08/16 09:55:48;;;;;;;5.70;4.93;;;26.10;99.90;;;-141.84;45.47;22469.00;4880524;29;20235;-49
2022/08/16 09:58:20;;;;;;;6.28;5.45;;;26.10;99.90;;;-141.84;45.86;22475.09;4880270;29;20270;-50
2022/08/16 10:01:08;;;;;;;5.35;4.47;;;26.10;99.90;;;-141.84;46.05;22440.53;4879968;29;20651;-46
2022/08/16 10:03:38;;;;;;;5.00;4.50;;;26.10;99.90;;;-141.84;44.53;22534.09;4879985;29;20631;-52
2022/08/16 10:06:28;;;;;;;5.85;4.70;;;26.30;99.90;;;-141.84;44.71;22552.38;4880081;29;20707;-46
2022/08/16 10:09:02;;;;;;;5.93;5.03;;;26.20;99.90;;;-141.84;44.67;22554.41;4879810;29;20230;-46
2022/08/16 10:14:22;;;;;;;4.60;4.03;;;26.30;99.90;;;-141.84;43.85;22586.97;4878793;29;20568;-45
2022/08/16 10:17:04;;;;;;;4.90;4.50;;;26.40;99.90;;;-141.84;43.17;22625.59;4878900;29;20223;-48
2022/08/16 10:19:34;;;;;;;4.32;4.03;;;26.50;99.90;;;-141.84;42.51;22654.06;4879350;29;20235;-46
2022/08/16 10:22:02;;;;;;;4.07;3.70;;;26.50;99.90;;;-141.84;42.59;22633.75;4879802;29;20227;-46
2022/08/16 10:24:33;;;;;;;5.85;3.78;;;26.50;99.90;;;-141.84;42.73;22643.91;4879372;29;20656;-45
2022/08/16 10:27:05;;;;;;;5.90;3.80;;;26.50;99.90;;;-141.84;42.73;22704.94;4877566;29;20211;-48
2022/08/16 10:29:54;;;;;;;3.70;3.40;;;26.60;99.90;;;-141.84;41.91;22715.09;4861227;29;20212;-51
2022/08/16 10:32:30;;;;;;;4.97;3.55;;;26.70;99.90;;;-141.84;42.09;22660.19;4861104;29;20556;-52
2022/08/16 10:35:00;;;;;;;3.75;2.95;;;26.70;99.90;;;-141.84;40.83;22743.56;4860602;29;20290;-50
2022/08/16 10:37:29;;;;;;;5.75;3.13;;;26.70;99.90;;;-141.84;40.42;22810.69;4872662;29;20239;-46